Southern California Logo

Westlake, CA Single Family Real Estate Listings

177 Total Real Estate Listings * Click on table heading to sort
Date Posted Property Type Style Address Price Living Area Lot Size Price/Sq Ft.
2018-06-21 Single Family 154 Kings Place Westlake, CA 91361 $564,000 1,452 sq. ft. 11,326 sq. ft. $388
2018-06-21 Single Family Traditional 4201 Dan Wood Drive Westlake, CA 91362 $1,130,000 2,572 sq. ft. 1,742 sq. ft. $439
2018-06-21 Single Family 5623 Hidden Glen Court Westlake, CA 91362 $1,756,000 2,700 sq. ft. 13,504 sq. ft. $650
2018-06-21 Single Family 382 Via Colinas Westlake, CA 91362 $549,000 1,251 sq. ft. 871 sq. ft. $439
2018-06-21 Single Family Traditional 1793 Saint Andrews Place Westlake, CA 91362 $1,149,000 2,117 sq. ft. 9,148 sq. ft. $543
2018-06-20 Single Family Contemporary 3352 Medicine Bow Court Westlake, CA 91362 $999,000 2,668 sq. ft. 9,148 sq. ft. $374
2018-06-19 Single Family 130 Lower Lake Road Westlake, CA 91361 $2,395,000 2,024 sq. ft. 10,019 sq. ft. $1,183
2018-06-19 Single Family 4424 Beaconsfield Court Westlake, CA 91361 $1,199,000 2,235 sq. ft. 6,970 sq. ft. $536
2018-06-18 Single Family 30807 Overfall Drive Westlake, CA 91362 $887,950 1,925 sq. ft. 8,276 sq. ft. $461
2018-06-18 Single Family 3823 Bowsprit Circle Westlake, CA 91361 $1,590,000 2,222 sq. ft. 4,792 sq. ft. $716
2018-06-18 Single Family 2351 Topsail Circle Westlake, CA 91361 $1,199,000 2,161 sq. ft. 8,712 sq. ft. $555
2018-06-18 Single Family 1307 Bluesail Circle Westlake, CA 91361 $1,685,000 2,551 sq. ft. 5,227 sq. ft. $661
2018-06-18 Single Family Mediterranean 4772 Canterbury Street Westlake, CA 91362 $1,289,000 2,641 sq. ft. 6,970 sq. ft. $488
2018-06-17 Single Family Mediterranean; Ranch 1688 Hidden Valley Road Valley Westlake, CA 91361 $11,900,000 1,785 sq. ft. 1,099,890 sq. ft. $6,667
2018-06-15 Single Family 2175 Westshore Lane Westlake, CA 91361 $779,000 1,540 sq. ft. 8,276 sq. ft. $506
2018-06-15 Single Family 4210 Dan Wood Drive Westlake, CA 91362 $1,250,000 2,572 sq. ft. 1,742 sq. ft. $486
2018-06-15 Single Family 2106 Waterside Circle Westlake, CA 91362 $1,645,000 3,520 sq. ft. 22,216 sq. ft. $467
2018-06-14 Single Family 4578 Rayburn Street Westlake, CA 91362 $1,499,000 2,316 sq. ft. 7,405 sq. ft. $647
2018-06-14 Single Family French Country; Traditional 1292 Brookview Avenue Westlake, CA 91361 $1,089,000 2,396 sq. ft. 10,019 sq. ft. $455
2018-06-14 Single Family Mediterranean 4738 Golf Course Drive Westlake, CA 91362 $3,695,000 7,556 sq. ft. 64,904 sq. ft. $489
2018-06-14 Single Family 31608 Village Center Road Westlake, CA 91361 $1,175,000 2,371 sq. ft. 6,970 sq. ft. $496
2018-06-14 Single Family Mediterranean 3832 Bowsprit Circle Westlake, CA 91361 $1,595,000 2,653 sq. ft. 4,792 sq. ft. $601
2018-06-14 Single Family 404 Via Colinas Westlake, CA 91362 $595,000 1,435 sq. ft. 871 sq. ft. $415
2018-06-13 Single Family 1169 Nottingwood Circle Westlake, CA 91361 $685,000 1,149 sq. ft. 6,098 sq. ft. $596
2018-06-13 Single Family Contemporary 3141 Adirondack Court Westlake, CA 91362 $949,000 2,251 sq. ft. 7,841 sq. ft. $422
2018-06-13 Single Family Mediterranean 4435 Beaconsfield Court Westlake, CA 91361 $1,200,000 2,218 sq. ft. 8,712 sq. ft. $541
2018-06-12 Single Family 2186 Marshbrook Road Westlake, CA 91361 $5,485,000 10,090 sq. ft. 41,382 sq. ft. $544
2018-06-10 Single Family 28 Nottingham Road Westlake, CA 91361 $475,999 2,248 sq. ft. 7,405 sq. ft. $212
2018-06-10 Single Family Contemporary 4555 Tam Oshanter Drive Westlake, CA 91362 $1,139,000 2,458 sq. ft. 4,356 sq. ft. $463
2018-06-10 Single Family Traditional 2472 Leaflock Avenue Westlake, CA 91361 $1,050,000 1,913 sq. ft. 6,970 sq. ft. $549
2018-06-09 Single Family Mediterranean; Ranch; Traditional 4263 Arrowhead Circle Westlake, CA 91362 $1,499,900 3,119 sq. ft. 69,260 sq. ft. $481
2018-06-07 Single Family Calif Bungalow 3827 Lake Harbor Lane Westlake, CA 91361 $988,000 1,753 sq. ft. 3,485 sq. ft. $564
2018-06-07 Single Family Mediterranean 2047 Bridgegate Ct Westlake, CA 91361 $1,299,000 2,510 sq. ft. 8,276 sq. ft. $518
2018-06-07 Single Family Mediterranean 4193 Dan Wood Drive Westlake, CA 91362 $1,249,000 2,572 sq. ft. 1,742 sq. ft. $486
2018-06-05 Single Family 15 Sherwood Drive Westlake, CA 91361 $613,000 1,638 sq. ft. 6,534 sq. ft. $374
2018-06-05 Single Family 5542 Little Fawn Court Westlake, CA 91362 $2,550,000 6,176 sq. ft. 29,185 sq. ft. $413
2018-06-05 Single Family 3123 Sierra Drive Westlake, CA 91362 $1,060,000 2,826 sq. ft. 7,405 sq. ft. $375
2018-06-05 Single Family Contemporary 1684 Camberwell Place Westlake, CA 91361 $989,000 2,510 sq. ft. 6,534 sq. ft. $394
2018-06-04 Single Family 3930 Freshwind Circle Westlake, CA 91361 $2,175,000 2,499 sq. ft. 6,098 sq. ft. $870
2018-06-04 Single Family 60 Robin Hood Place Westlake, CA 91361 $589,000 1,440 sq. ft. 6,098 sq. ft. $409
2018-06-03 Single Family Craftsman 2809 Great Smokey Court Westlake, CA 91362 $879,000 1,992 sq. ft. 6,970 sq. ft. $441
2018-06-02 Single Family 1008 Cherry Creek Circle Westlake, CA 91362 $825,000 1,819 sq. ft. 871 sq. ft. $454
2018-06-01 Single Family 782 Hartglen Avenue Westlake, CA 91361 $1,649,000 3,501 sq. ft. 28,750 sq. ft. $471
2018-06-01 Single Family 31771 Foxfield Drive Westlake, CA 91361 $1,999,000 4,097 sq. ft. 15,246 sq. ft. $488
2018-06-01 Single Family French Country 1223 Heritage Place Westlake, CA 91362 $2,299,000 4,529 sq. ft. 85,378 sq. ft. $508
2018-06-01 Single Family Ranch 531 Country Valley Road Westlake, CA 91362 $3,000,000 7,144 sq. ft. 73,181 sq. ft. $420
2018-06-01 Single Family 3895 Peacock Court Westlake, CA 91362 $3,580,000 8,814 sq. ft. 230,432 sq. ft. $406
2018-05-31 Single Family Mediterranean 3813 Mainsail Circle Westlake, CA 91361 $1,599,000 2,755 sq. ft. 4,792 sq. ft. $580
2018-05-31 Single Family Traditional 4219 Hunt Club Lane Westlake, CA 91361 $1,699,900 3,109 sq. ft. 19,166 sq. ft. $547
2018-05-31 Single Family Contemporary 3915 Freshwind Circle Westlake, CA 91361 $2,629,000 3,129 sq. ft. 6,098 sq. ft. $840
2018-05-30 Single Family 3260 Sawtooth Court Westlake, CA 91362 $899,900 2,781 sq. ft. 6,970 sq. ft. $324
2018-05-30 Single Family 438 Via Colinas Westlake, CA 91362 $575,000 1,332 sq. ft. 871 sq. ft. $432
2018-05-30 Single Family Contemporary 3321 Sawtooth Court Westlake, CA 91362 $969,000 2,637 sq. ft. 7,841 sq. ft. $367
2018-05-30 Single Family 1604 Camberwell Place Westlake, CA 91361 $1,185,000 2,835 sq. ft. 6,534 sq. ft. $418
2018-05-30 Single Family 1010 Westcreek Lane Westlake, CA 91362 $889,000 1,948 sq. ft. 1,742 sq. ft. $456
2018-05-29 Single Family Ranch 4539 Valley Spring Drive Westlake, CA 91362 $2,100,000 4,537 sq. ft. 23,087 sq. ft. $463
2018-05-29 Single Family 3905 Cresthaven Drive Westlake, CA 91362 $2,400,000 5,184 sq. ft. 18,295 sq. ft. $463
2018-05-29 Single Family 6131 Landino Drive Westlake, CA 91362 $879,000 1,837 sq. ft. 9,148 sq. ft. $478
2018-05-29 Single Family Modern; Traditional 1224 Westlake Boulevard Westlake, CA 91361 $674,000 1,750 sq. ft. 3,920 sq. ft. $385
2018-05-26 Single Family French 1064 Lakeview Canyon Road Westlake, CA 91362 $6,499,000 12,167 sq. ft. 132,422 sq. ft. $534
2018-05-25 Single Family Traditional 168 Via Colinas Westlake, CA 91362 $569,900 1,332 sq. ft. 871 sq. ft. $428
2018-05-25 Single Family Ranch; Spanish 3957 Skelton Canyon Circle Westlake, CA 91362 $2,100,000 4,383 sq. ft. 63,598 sq. ft. $479
2018-05-25 Single Family Mediterranean; Traditional 3326 Sierra Drive Westlake, CA 91362 $933,000 2,490 sq. ft. 7,841 sq. ft. $375
2018-05-25 Single Family Traditional 1591 Upper Ranch Road Westlake, CA 91362 $1,555,000 3,780 sq. ft. 21,344 sq. ft. $411
2018-05-25 Single Family 1306 White Dove Circle Westlake, CA 91362 $1,780,000 3,590 sq. ft. 16,553 sq. ft. $496
2018-05-25 Single Family 3153 Adirondack Court Westlake, CA 91362 $874,500 1,925 sq. ft. 8,276 sq. ft. $454
2018-05-23 Single Family 2678 Grandoaks Drive Westlake, CA 91361 $1,500,000 4,222 sq. ft. 15,682 sq. ft. $355
2018-05-23 Single Family 5531 Little Fawn Court Westlake, CA 91362 $2,785,000 5,432 sq. ft. 21,780 sq. ft. $513
2018-05-22 Single Family Mediterranean 32122 Canyon Crest Court Westlake, CA 91361 $885,000 2,263 sq. ft. 2,178 sq. ft. $391
2018-05-22 Single Family 1455 Whitehall Place Westlake, CA 91361 $1,250,000 2,000 sq. ft. 7,841 sq. ft. $625
2018-05-22 Single Family Mediterranean; Traditional 3007 Hillcrest Drive Westlake, CA 91362 $595,000 1,547 sq. ft. 871 sq. ft. $385
2018-05-21 Single Family 4639 Rayburn Street Westlake, CA 91362 $1,350,000 3,096 sq. ft. 11,326 sq. ft. $436
2018-05-21 Single Family 1192 Brookview Avenue Westlake, CA 91361 $1,200,000 2,458 sq. ft. 20,473 sq. ft. $488
2018-05-20 Single Family Mediterranean 2054 Hathaway Avenue Westlake, CA 91362 $2,250,000 5,718 sq. ft. 16,117 sq. ft. $393
2018-05-18 Single Family Contemporary 1076 Triunfo Canyon Road Westlake, CA 91361 $889,000 2,657 sq. ft. 6,534 sq. ft. $335
2018-05-17 Single Family Contemporary; Mediterranean 1532 Covington Avenue Westlake, CA 91361 $1,149,000 2,305 sq. ft. 6,534 sq. ft. $498
2018-05-17 Single Family 32826 Barrett Drive Westlake, CA 91361 $1,550,000 3,748 sq. ft. 33,977 sq. ft. $414
2018-05-16 Single Family Traditional 5579 Grey Feather Court Westlake, CA 91362 $2,050,000 5,486 sq. ft. 20,473 sq. ft. $374
2018-05-15 Single Family 1715 Misty Creek Road Westlake, CA 91362 $1,875,000 3,420 sq. ft. 21,344 sq. ft. $548
2018-05-14 Single Family 32024 Royceton Court Westlake, CA 91361 $1,169,000 2,512 sq. ft. 7,841 sq. ft. $465
2018-05-14 Single Family 5740 Whispering Pines Circle Westlake, CA 91362 $835,000 2,113 sq. ft. $395
2018-05-12 Single Family Traditional 31012 Old Colony Way Westlake, CA 91361 $710,000 1,658 sq. ft. 890,366 sq. ft. $428
2018-05-11 Single Family 3254 Medicine Bow Court Westlake, CA 91362 $1,195,000 2,637 sq. ft. 7,841 sq. ft. $453
2018-05-11 Single Family Adobe 4138 Lake Harbor Lane Westlake, CA 91361 $549,000 1,131 sq. ft. 372,438 sq. ft. $485
2018-05-11 Single Family Mediterranean 774 Lakeview Canyon Road Westlake, CA 91362 $3,490,000 7,484 sq. ft. 141,134 sq. ft. $466
2018-05-11 Single Family Mediterranean 4774 Golf Course Drive Westlake, CA 91362 $3,695,000 10,007 sq. ft. 89,734 sq. ft. $369
2018-05-10 Single Family Contemporary; Modern 1400 Redsail Circle Westlake, CA 91361 $2,895,000 3,221 sq. ft. 5,227 sq. ft. $899
2018-05-09 Single Family 1790 Blue Hill Court Westlake, CA 91362 $1,299,000 2,641 sq. ft. 8,276 sq. ft. $492
2018-05-09 Single Family Contemporary 3663 Golden Leaf Drive Westlake, CA 91361 $1,950,000 3,869 sq. ft. 24,829 sq. ft. $504
2018-05-08 Single Family Mediterranean 2806 Shoreview Circle Westlake, CA 91361 $695,000 1,144 sq. ft. 2,614 sq. ft. $608
2018-05-08 Single Family 2846 Instone Court Westlake, CA 91361 $429,500 924 sq. ft. 3,049 sq. ft. $465
2018-05-07 Single Family 31857 Saddletree Drive Westlake, CA 91361 $2,000,000 5,143 sq. ft. 15,682 sq. ft. $389
2018-05-07 Single Family Traditional 5468 Indian Trail Court Westlake, CA 91362 $1,899,950 4,252 sq. ft. 15,246 sq. ft. $447
2018-05-07 Single Family Traditional 4551 Wolsey Court Westlake, CA 91361 $1,165,000 2,387 sq. ft. 9,583 sq. ft. $488
2018-05-07 Single Family 300 Manzanita Lane Westlake, CA 91361 $799,000 2,819 sq. ft. 13,939 sq. ft. $283
2018-05-07 Single Family 3089 Sierra Drive Westlake, CA 91362 $899,000 2,087 sq. ft. 7,405 sq. ft. $431
2018-05-07 Single Family Tuscan 3803 Charthouse Circle Westlake, CA 91361 $2,395,000 3,543 sq. ft. 10,019 sq. ft. $676
2018-05-07 Single Family Mediterranean 1724 Mesa Ridge Avenue Westlake, CA 91362 $1,799,000 3,700 sq. ft. 20,473 sq. ft. $486
2018-05-07 Single Family Cape Cod 1896 Smokey Ridge Avenue Westlake, CA 91362 $1,850,000 3,883 sq. ft. 23,522 sq. ft. $476
2018-05-07 Single Family 30816 Whim Drive Westlake, CA 91362 $850,000 1,837 sq. ft. 6,534 sq. ft. $463
2018-05-07 Single Family Other 31609 Village School Road Westlake, CA 91361 $1,175,000 2,371 sq. ft. 6,970 sq. ft. $496
2018-05-07 Single Family Spanish 31573 Saddletree Drive Westlake, CA 91361 $3,300,000 6,551 sq. ft. 27,007 sq. ft. $504
2018-05-07 Single Family 1150 Westcreek Lane Westlake, CA 91362 $830,000 1,948 sq. ft. 1,307 sq. ft. $426
2018-05-07 Single Family Traditional 1676 Elmsford Place Westlake, CA 91361 $1,185,000 2,458 sq. ft. 6,534 sq. ft. $482
2018-05-07 Single Family Traditional 2406 Kirsten Lee Drive Westlake, CA 91361 $1,499,950 4,258 sq. ft. 11,326 sq. ft. $352
2018-05-07 Single Family 1230 Kirkford Way Westlake, CA 91361 $449,000 924 sq. ft. 3,049 sq. ft. $486
2018-05-07 Single Family Architectural 1055 Barrow Court Westlake, CA 91361 $924,980 2,491 sq. ft. 7,405 sq. ft. $371
2018-05-07 Single Family 3506 Twin Lake Ridge Westlake, CA 91361 $1,999,500 3,676 sq. ft. 8,276 sq. ft. $544
2018-05-07 Single Family Contemporary 1166 Westlake Boulevard Westlake, CA 91361 $679,000 1,656 sq. ft. 3,920 sq. ft. $410
2018-05-07 Single Family Mediterranean 1545 Heather Oaks Lane Westlake, CA 91361 $1,685,000 3,634 sq. ft. 14,375 sq. ft. $464
2018-05-07 Single Family 126 Fallen Leaf Lane Westlake, CA 91361 $645,000 1,422 sq. ft. 4,356 sq. ft. $454
2018-05-07 Single Family Traditional 3996 Skelton Canyon Circle Westlake, CA 91362 $2,149,000 4,116 sq. ft. 35,719 sq. ft. $522
2018-05-07 Single Family Tuscan 1431 Redsail Circle Westlake, CA 91361 $2,575,000 3,414 sq. ft. 5,227 sq. ft. $754
2018-05-07 Single Family Tuscan 1481 La Venta Drive Westlake, CA 91361 $4,985,000 4,722 sq. ft. 10,019 sq. ft. $1,056
2018-05-07 Single Family 5649 Roundtree Place Westlake, CA 91362 $880,000 2,372 sq. ft. 1,307 sq. ft. $371
2018-05-07 Single Family Contemporary 1476 Eastwind Circle Westlake, CA 91361 $1,879,000 2,621 sq. ft. 5,663 sq. ft. $717
2018-05-07 Single Family 4323 Hartfield Court Westlake, CA 91361 $1,019,000 2,371 sq. ft. 6,534 sq. ft. $430
2018-05-07 Single Family 1385 Bridgegate Street Westlake, CA 91361 $3,195,000 6,000 sq. ft. 132,422 sq. ft. $532
2018-05-07 Single Family Traditional 1480 Cheviot Hills Court Westlake, CA 91361 $3,299,000 6,021 sq. ft. 41,818 sq. ft. $548
2018-05-07 Single Family French 2112 Trentham Road Westlake, CA 91361 $7,995,000 7,782 sq. ft. 12,197 sq. ft. $1,027
2018-05-07 Single Family Cape Cod 4188 Cresthaven Drive Westlake, CA 91362 $2,999,900 5,429 sq. ft. 23,958 sq. ft. $553
2018-05-07 Single Family 4001 Mariner Circle Westlake, CA 91361 $1,549,000 2,551 sq. ft. 6,970 sq. ft. $607
2018-05-07 Single Family Tudor 5600 Lakeview Canyon Road Westlake, CA 91362 $2,150,000 4,000 sq. ft. 25,700 sq. ft. $538
2018-05-07 Single Family 2406 Windward Circle Westlake, CA 91361 $1,384,000 1,960 sq. ft. 3,920 sq. ft. $706
2018-05-07 Single Family 4816 Coyote Wells Circle Westlake, CA 91362 $1,445,000 2,297 sq. ft. 6,534 sq. ft. $629
2018-05-06 Single Family 1478 Kingston Circle Westlake, CA 91362 $2,175,000 4,735 sq. ft. 33,541 sq. ft. $459
2018-05-06 Single Family 1116 Stoneshead Court Westlake, CA 91361 $1,325,000 2,574 sq. ft. 14,375 sq. ft. $515
2018-05-06 Single Family 2423 Kirsten Lee Drive Westlake, CA 91361 $1,225,000 2,936 sq. ft. 15,682 sq. ft. $417
2018-05-06 Single Family 5693 Tanner Ridge Avenue Westlake, CA 91362 $899,999 2,373 sq. ft. 1,307 sq. ft. $379
2018-05-06 Single Family 1199 Kirkford Way Westlake, CA 91361 $429,000 920 sq. ft. 3,049 sq. ft. $466
2018-05-06 Single Family 32140 Oakshore Drive Westlake, CA 91361 $1,999,000 1,996 sq. ft. 5,663 sq. ft. $1,002
2018-03-27 Single Family French Country; Other; Traditional 1419 Southwind Circle Westlake, CA 91361 $1,895,000 2,297 sq. ft. 5,227 sq. ft. $825
2018-03-26 Single Family Other 473 Lower Lake Road Westlake, CA 91361 $9,499,950 130,680 sq. ft.
2018-03-26 Single Family Traditional 4351 Spring Forest Lane Westlake, CA 91362 $3,650,000 5,568 sq. ft. 39,204 sq. ft. $656
2018-03-23 Single Family French 4354 Hunt Club Lane Westlake, CA 91361 $2,145,000 5,480 sq. ft. 28,314 sq. ft. $391
2018-03-23 Single Family Cape Cod 4035 Mariner Circle Westlake, CA 91361 $1,795,000 3,163 sq. ft. 5,663 sq. ft. $567
2018-03-21 Single Family Ranch 4228 Saddlecrest Lane Westlake, CA 91361 $2,295,000 3,910 sq. ft. 51,401 sq. ft. $587
2018-03-21 Single Family Traditional 2205 Highgate Road Westlake, CA 91361 $1,225,000 2,808 sq. ft. 13,068 sq. ft. $436
2018-03-21 Single Family Modern 1653 Vista Oaks Way Westlake, CA 91361 $2,245,000 5,110 sq. ft. 17,424 sq. ft. $439
2018-03-19 Single Family Ranch; Traditional 1730 Shetland Place Westlake, CA 91362 $2,299,000 4,587 sq. ft. 20,038 sq. ft. $501
2018-03-19 Single Family Mediterranean 5558 Spring Hill Court Westlake, CA 91362 $2,498,000 2,965 sq. ft. 49,223 sq. ft. $842
2018-03-16 Single Family Traditional 1109 Freeport Court Westlake, CA 91361 $848,000 2,227 sq. ft. 7,405 sq. ft. $381
2018-03-13 Single Family 1651 Falling Star Avenue Westlake, CA 91362 $1,849,900 4,219 sq. ft. 23,522 sq. ft. $438
2018-03-13 Single Family Contemporary 5759 Tanner Ridge Avenue Westlake, CA 91362 $719,000 1,949 sq. ft. 1,307 sq. ft. $369
2018-03-09 Single Family Ranch 1255 Landsburn Circle Westlake, CA 91361 $549,950 1,020 sq. ft. 3,049 sq. ft. $539
2018-03-09 Single Family 1230 Westlake Boulevard Westlake, CA 91361 $684,900 1,636 sq. ft. 3,920 sq. ft. $419
2018-03-08 Single Family Other 1363 Redsail Circle Westlake, CA 91361 $1,899,000 2,019 sq. ft. 5,663 sq. ft. $941
2018-03-07 Single Family Other 1367 Redsail Circle Westlake, CA 91361 $3,250,000 4,246 sq. ft. 9,583 sq. ft. $765
2018-03-05 Single Family 4787 Windhaven Drive Westlake, CA 91362 $13,988,000 16,702 sq. ft. 207,781 sq. ft. $838
2018-03-05 Single Family 2027 Waterside Circle Westlake, CA 91362 $2,175,000 5,718 sq. ft. 21,780 sq. ft. $380
2018-03-02 Single Family Ranch 600 Carlisle Road Westlake, CA 91361 $3,750,000 2,000 sq. ft. 1,960,200 sq. ft. $1,875
2018-03-01 Single Family Mediterranean 955 Vista Ridge Lane Westlake, CA 91362 $8,900,000 15,835 sq. ft. 187,308 sq. ft. $562
2018-02-14 Single Family 2396 Stafford Road Westlake, CA 91361 $3,495,000 5,585 sq. ft. 13,504 sq. ft. $626
2018-02-12 Single Family Mediterranean; Spanish 818 Rim Crest Drive Westlake, CA 91361 $1,298,000 2,915 sq. ft. 16,117 sq. ft. $445
2018-02-08 Single Family Traditional 940 Ranch House Road Westlake, CA 91361 $1,099,900 3,128 sq. ft. 7,841 sq. ft. $352
2018-02-07 Single Family Southwestern 3224 Blue Ridge Court Westlake, CA 91362 $849,500 2,078 sq. ft. 7,405 sq. ft. $409
2018-02-03 Single Family 1170 Westlake Boulevard Westlake, CA 91361 $639,000 1,829 sq. ft. 3,920 sq. ft. $349
2018-01-27 Single Family Mediterranean; Spanish 31673 Foxfield Drive Westlake, CA 91361 $1,898,000 4,369 sq. ft. 29,185 sq. ft. $434
2018-01-23 Single Family Traditional 5638 Roundtree Place Westlake, CA 91362 $885,000 2,372 sq. ft. 1,307 sq. ft. $373
2018-01-23 Single Family Traditional 4039 Mariner Circle Westlake, CA 91361 $1,589,000 2,551 sq. ft. 5,227 sq. ft. $623
2018-01-22 Single Family Mediterranean 1118 Country Valley Road Westlake, CA 91362 $4,395,000 6,869 sq. ft. 95,396 sq. ft. $640
2018-01-16 Single Family Spanish 1777 Saint Andrews Place Westlake, CA 91362 $1,399,000 3,526 sq. ft. 4,792 sq. ft. $397
2018-01-16 Single Family 3802 Charthouse Circle Westlake, CA 91361 $2,289,000 3,900 sq. ft. 6,970 sq. ft. $587
2018-01-16 Single Family French 3970 Victoria Lane Westlake, CA 91362 $85,000,000 50,255 sq. ft. 1,452,290 sq. ft. $1,691
2018-01-09 Single Family 3411 Woodburn Avenue Westlake, CA 91361 $3,750,000 7,977 sq. ft. 165,092 sq. ft. $470
2017-12-31 Single Family 1625 Crown Ridge Court Westlake, CA 91362 $4,500,000 13,000 sq. ft. 87,120 sq. ft. $346
2017-12-18 Single Family Mediterranean 5053 Royal Vista Court Westlake, CA 91362 $3,995,000 7,177 sq. ft. 0 sq. ft. $557
2017-12-04 Single Family Contemporary; Modern 31646 Foxfield Drive Westlake, CA 91361 $2,650,000 6,067 sq. ft. 23,958 sq. ft. $437
2017-11-17 Single Family 2705 Elderoak Road Westlake, CA 91361 $7,995,000 10,188 sq. ft. 81,022 sq. ft. $785
2017-11-10 Single Family Traditional 1740 Larkfield Avenue Westlake, CA 91362 $1,699,000 3,639 sq. ft. 20,038 sq. ft. $467
2017-10-12 Single Family Mediterranean 518 Lakeview Canyon Road Westlake, CA 91362 $3,490,000 7,498 sq. ft. 56,628 sq. ft. $465
2017-10-06 Single Family 0 Giles Road Westlake, CA 91361 $7,875,000 7,500 sq. ft. 52,708 sq. ft. $1,050
2017-09-29 Single Family Spanish 4512 Sevenoaks Court Westlake, CA 91361 $1,089,000 2,372 sq. ft. 8,276 sq. ft. $459
2017-09-29 Single Family French Country; Mediterranean; Spanish; Tuscan 1880 Collingswood Court Westlake, CA 91362 $4,250,000 9,136 sq. ft. 106,286 sq. ft. $465
2017-09-22 Single Family 1233 Woodland Grove Court Westlake, CA 91362 $11,900,000 14,000 sq. ft. 191,228 sq. ft. $850
2017-07-14 Single Family Mediterranean 3906 Fairbreeze Circle Westlake, CA 91361 $2,850,000 4,000 sq. ft. 6,098 sq. ft. $712
2017-04-18 Single Family Traditional 2267 Westshore Lane Westlake, CA 91361 $1,769,000 2,051 sq. ft. 8,276 sq. ft. $863